This is the latest recevied weather packets stored in our database for station/object SQ9RHX-11. If no packets are shown the sender has not sent any weather packets the latest 10 day(s).
| Time | Temp. | Humidity | Pressure | Rain* | Wind** | Luminosity | Snow |
|---|---|---|---|---|---|---|---|
| 1788313068 | 12.22° C | 82% | 1021.5 hPa | - | - | - | - |
| 1788311269 | 12.22° C | 82% | 1021.5 hPa | - | - | - | - |
| 1788309469 | 12.22° C | 82% | 1021.5 hPa | - | - | - | - |
| 1788307670 | 11.67° C | 81% | 1021.5 hPa | - | - | - | - |
| 1788305870 | 12.78° C | 79% | 1021.5 hPa | - | - | - | - |
| 1788304071 | 13.33° C | 79% | 1021.5 hPa | - | - | - | - |
| 1788302271 | 12.22° C | 78% | 1021.5 hPa | - | - | - | - |
| 1788300471 | 12.78° C | 76% | 1021.5 hPa | - | - | - | - |
| 1788298673 | 13.89° C | 74% | 1021.6 hPa | - | - | - | - |
| 1788296874 | 14.44° C | 72% | 1021.5 hPa | - | - | - | - |
| 1788295074 | 15° C | 69% | 1021.4 hPa | - | - | - | - |
| 1788293275 | 16.11° C | 66% | 1021.4 hPa | - | - | - | - |
| 1788291475 | 16.11° C | 70% | 1021.4 hPa | - | - | - | - |
| 1788289676 | 15° C | 69% | 1021.2 hPa | - | - | - | - |
| 1788287877 | 15.56° C | 66% | 1021.1 hPa | - | - | - | - |
| 1788286077 | 16.67° C | 61% | 1020.9 hPa | - | - | - | - |
| 1788284278 | 18.89° C | 55% | 1020.5 hPa | - | - | - | - |
| 1788282478 | 20° C | 52% | 1020.3 hPa | - | - | - | - |
| 1788280679 | 21.11° C | 48% | 1020.2 hPa | - | - | - | - |
| 1788278879 | 22.78° C | 46% | 1020.3 hPa | - | - | - | - |
| 1788277079 | 23.33° C | 46% | 1020.1 hPa | - | - | - | - |
| 1788275279 | 23.33° C | 45% | 1020.3 hPa | - | - | - | - |
| 1788273480 | 23.89° C | 44% | 1020.2 hPa | - | - | - | - |
| 1788271680 | 24.44° C | 46% | 1020.4 hPa | - | - | - | - |
| 1788269881 | 23.33° C | 44% | 1020.5 hPa | - | - | - | - |
* Rain since midnight (hover to see other rain measurements)
** Current wind speed in m/s (hover to see current wind gust speed)